Terminal Aerodrome Forecast
Issued by NWS

Home | Current Version | Previous Version | Text Only | Print | Product List | Glossary On
Versions: 1 2 3 4 5 6 7 8 9 10 11 12 13
000
FTUS44 KBMX 261720
TAFTCL
TAF
KTCL 261720Z 2618/2718 05006KT P6SM SKC
     FM262000 15006KT P6SM SKC
     FM270400 15004KT P6SM OVC250
     FM270700 15006KT P6SM OVC120
     FM271200 14003KT P6SM SHRA OVC100
     FM271400 13003KT P6SM RA OVC050=

USA.gov is the U.S. government's official web portal to all federal, state and local government web resources and services.